createdAt,value
2023-04-28T00:00:29.470Z,17.43
2023-04-28T00:03:17.229Z,17.57
2023-04-28T00:05:44.433Z,17.20
2023-04-28T00:08:12.435Z,17.00
2023-04-28T00:10:39.597Z,18.53
2023-04-28T00:13:07.185Z,18.70
2023-04-28T00:15:34.171Z,18.20
2023-04-28T00:18:01.429Z,17.63
2023-04-28T00:20:28.393Z,16.03
2023-04-28T00:22:55.525Z,16.03
2023-04-28T00:25:22.512Z,16.67
2023-04-28T00:27:50.305Z,16.33
2023-04-28T00:30:17.425Z,17.20
2023-04-28T00:32:44.679Z,16.33
2023-04-28T00:35:11.564Z,17.37
2023-04-28T00:37:39.579Z,16.67
2023-04-28T00:40:07.154Z,16.70
2023-04-28T00:42:34.337Z,17.63
2023-04-28T00:45:05.946Z,19.23
2023-04-28T00:47:35.040Z,18.30
2023-04-28T00:50:02.478Z,17.92
2023-04-28T00:52:29.937Z,17.23
2023-04-28T00:54:58.062Z,19.93
2023-04-28T00:57:25.210Z,18.17
2023-04-28T00:59:52.539Z,19.50
2023-04-28T01:02:20.236Z,18.80
2023-04-28T01:04:48.334Z,20.93
2023-04-28T01:07:15.459Z,18.80
2023-04-28T01:09:42.355Z,18.80
2023-04-28T01:12:09.517Z,19.40
2023-04-28T01:14:36.445Z,18.77
2023-04-28T01:17:04.073Z,18.20
2023-04-28T01:19:31.113Z,19.10
2023-04-28T01:21:58.308Z,17.90
2023-04-28T01:24:25.236Z,18.27
2023-04-28T01:26:52.335Z,18.90
2023-04-28T01:29:19.168Z,17.80
2023-04-28T01:31:46.453Z,18.60
2023-04-28T01:34:13.681Z,18.67
2023-04-28T01:36:41.215Z,18.97
2023-04-28T01:39:08.320Z,18.23
2023-04-28T01:41:35.494Z,18.83
2023-04-28T01:44:02.370Z,17.73
2023-04-28T01:46:29.596Z,19.37
2023-04-28T01:48:56.520Z,18.03
2023-04-28T01:51:23.601Z,19.40
2023-04-28T01:53:50.491Z,18.47
2023-04-28T01:56:17.587Z,18.97
2023-04-28T01:58:44.526Z,18.53
2023-04-28T02:01:11.736Z,19.97
2023-04-28T02:03:38.709Z,19.07
2023-04-28T02:06:06.185Z,19.43
2023-04-28T02:08:33.022Z,18.03
2023-04-28T02:11:01.765Z,20.73
2023-04-28T02:13:28.687Z,19.80
2023-04-28T02:15:56.132Z,18.87
2023-04-28T02:18:23.005Z,20.33
2023-04-28T02:20:50.247Z,18.27
2023-04-28T02:23:17.148Z,19.37
2023-04-28T02:25:44.311Z,19.67
2023-04-28T02:28:11.172Z,18.37
2023-04-28T02:30:38.362Z,19.47
2023-04-28T02:33:05.229Z,18.23
2023-04-28T02:35:32.447Z,18.70
2023-04-28T02:37:59.305Z,17.13
2023-04-28T02:43:22.012Z,17.93
2023-04-28T02:45:49.165Z,18.13
2023-04-28T02:48:16.111Z,20.40
2023-04-28T02:50:43.289Z,20.20
2023-04-28T02:53:10.116Z,20.10
2023-04-28T02:55:37.298Z,17.13
2023-04-28T02:58:04.222Z,17.03
2023-04-28T03:00:31.473Z,18.10
2023-04-28T03:02:58.821Z,17.83
2023-04-28T03:05:26.416Z,17.33
2023-04-28T03:07:53.477Z,18.23
2023-04-28T03:10:20.738Z,17.20
2023-04-28T03:12:47.608Z,17.10
2023-04-28T03:15:14.805Z,17.33
2023-04-28T03:17:43.189Z,16.73
2023-04-28T03:20:11.139Z,16.75
2023-04-28T03:22:38.057Z,18.63
2023-04-28T03:25:05.963Z,17.23
2023-04-28T03:27:32.941Z,15.83
2023-04-28T03:30:00.171Z,16.60
2023-04-28T03:32:27.039Z,16.70
2023-04-28T03:34:54.196Z,15.57
2023-04-28T03:37:21.078Z,16.20
2023-04-28T03:39:48.295Z,15.77
2023-04-28T03:42:15.206Z,16.63
2023-04-28T03:44:42.375Z,16.33
2023-04-28T03:47:09.295Z,14.27
2023-04-28T03:49:36.484Z,16.30
2023-04-28T03:52:04.539Z,17.47
2023-04-28T03:54:31.886Z,18.35
2023-04-28T03:56:59.583Z,16.80
2023-04-28T03:59:26.961Z,17.43
2023-04-28T04:01:53.822Z,16.00
2023-04-28T04:04:21.490Z,14.83
2023-04-28T04:06:48.868Z,14.53
2023-04-28T04:09:16.296Z,14.10
2023-04-28T04:11:43.181Z,14.57
2023-04-28T04:14:10.593Z,15.00
2023-04-28T04:16:37.640Z,13.53
2023-04-28T04:19:04.760Z,14.57
2023-04-28T04:21:32.006Z,13.07
2023-04-28T04:23:59.146Z,12.33
2023-04-28T04:26:26.063Z,13.07
2023-04-28T04:28:53.498Z,11.90
2023-04-28T04:31:20.382Z,11.80
2023-04-28T04:33:47.765Z,12.27
2023-04-28T04:36:14.865Z,12.53
2023-04-28T04:38:41.986Z,13.03
2023-04-28T04:41:08.854Z,13.00
2023-04-28T04:43:36.016Z,12.47
2023-04-28T04:46:04.121Z,12.20
2023-04-28T04:48:31.399Z,12.98
2023-04-28T04:50:58.217Z,12.43
2023-04-28T04:53:25.324Z,12.13
2023-04-28T04:55:52.217Z,13.53
2023-04-28T04:58:19.556Z,12.50
2023-04-28T05:00:46.500Z,12.77
2023-04-28T05:03:13.845Z,12.50
2023-04-28T05:05:40.892Z,12.20
2023-04-28T05:08:08.009Z,12.10
2023-04-28T05:10:34.861Z,12.47
2023-04-28T05:13:02.047Z,10.95
2023-04-28T05:15:29.244Z,10.95
2023-04-28T05:17:57.083Z,12.15
2023-04-28T05:20:24.020Z,11.68
2023-04-28T05:22:51.800Z,12.73
2023-04-28T05:25:18.611Z,11.27
2023-04-28T05:27:45.839Z,10.65
2023-04-28T05:30:12.966Z,9.85
2023-04-28T05:32:40.108Z,10.13
2023-04-28T05:35:07.339Z,10.40
2023-04-28T05:37:34.532Z,10.43
2023-04-28T05:40:01.341Z,11.60
2023-04-28T05:42:28.554Z,11.70
2023-04-28T05:44:55.543Z,12.65
2023-04-28T05:47:22.841Z,11.98
2023-04-28T05:49:49.767Z,11.80
2023-04-28T05:52:16.896Z,10.68
2023-04-28T05:54:43.695Z,9.55
2023-04-28T05:57:11.318Z,10.02
2023-04-28T05:59:38.589Z,9.13
2023-04-28T06:02:05.783Z,8.80
2023-04-28T06:04:33.079Z,9.25
2023-04-28T06:07:00.576Z,8.15
2023-04-28T06:09:27.442Z,8.15
2023-04-28T06:11:54.592Z,8.48
2023-04-28T06:14:23.022Z,7.18
2023-04-28T06:16:51.234Z,8.75
2023-04-28T06:19:19.085Z,7.60
2023-04-28T06:21:46.676Z,7.45
2023-04-28T06:24:13.605Z,6.55
2023-04-28T06:26:40.758Z,5.55
2023-04-28T06:29:07.653Z,5.78
2023-04-28T06:31:34.820Z,5.60
2023-04-28T06:34:01.900Z,5.47
2023-04-28T06:36:29.104Z,5.25
2023-04-28T06:38:56.107Z,5.13
2023-04-28T06:41:23.592Z,4.53
2023-04-28T06:43:51.099Z,4.53
2023-04-28T06:46:18.306Z,5.28
2023-04-28T06:48:45.186Z,4.85
2023-04-28T06:51:12.444Z,4.63
2023-04-28T06:53:39.336Z,4.63
2023-04-28T06:56:07.821Z,4.25
2023-04-28T06:58:37.120Z,4.45
2023-04-28T07:01:05.820Z,4.15
2023-04-28T07:03:32.932Z,5.07
2023-04-28T07:06:00.284Z,4.38
2023-04-28T07:08:27.759Z,4.45
2023-04-28T07:10:54.922Z,4.72
2023-04-28T07:13:22.155Z,3.90
2023-04-28T07:15:49.948Z,3.83
2023-04-28T07:18:16.953Z,4.40
2023-04-28T07:20:44.148Z,5.75
2023-04-28T07:23:11.500Z,5.22
2023-04-28T07:25:40.146Z,4.78
2023-04-28T07:28:07.905Z,4.70
2023-04-28T07:30:35.824Z,4.78
2023-04-28T07:33:02.991Z,4.13
2023-04-28T07:35:30.365Z,3.95
2023-04-28T07:37:58.133Z,4.45
2023-04-28T07:40:25.308Z,4.60
2023-04-28T07:42:52.208Z,4.63
2023-04-28T07:45:19.463Z,4.40
2023-04-28T07:47:46.417Z,5.03
2023-04-28T07:50:13.604Z,4.63
2023-04-28T07:52:40.457Z,5.07
2023-04-28T07:55:08.828Z,5.68
2023-04-28T07:57:35.932Z,4.50
2023-04-28T08:00:03.872Z,4.40
2023-04-28T08:02:31.128Z,6.65
2023-04-28T08:04:58.614Z,5.38
2023-04-28T08:07:26.225Z,5.30
2023-04-28T08:09:53.891Z,4.82
2023-04-28T08:12:22.051Z,4.10
2023-04-28T08:14:49.269Z,5.00
2023-04-28T08:17:17.701Z,4.43
2023-04-28T08:19:46.422Z,4.90
2023-04-28T08:22:13.821Z,4.57
2023-04-28T08:24:41.187Z,4.60
2023-04-28T08:27:08.371Z,4.35
2023-04-28T08:29:35.610Z,4.05
2023-04-28T08:32:02.522Z,3.95
2023-04-28T08:34:29.991Z,4.43
2023-04-28T08:36:57.005Z,4.47
2023-04-28T08:39:26.551Z,4.05
2023-04-28T08:41:53.964Z,4.07
2023-04-28T08:44:21.159Z,4.30
2023-04-28T08:46:50.295Z,4.75
2023-04-28T08:49:18.985Z,4.50
2023-04-28T08:51:57.429Z,5.85
2023-04-28T08:54:30.759Z,4.22
2023-04-28T08:56:58.765Z,4.30
2023-04-28T08:59:26.465Z,3.75
2023-04-28T09:01:53.478Z,4.53
2023-04-28T09:04:21.602Z,4.32
2023-04-28T09:06:48.979Z,3.80
2023-04-28T09:09:22.029Z,3.33
2023-04-28T09:11:53.730Z,3.70
2023-04-28T09:14:21.080Z,3.85
2023-04-28T09:16:48.434Z,4.03
2023-04-28T09:19:19.522Z,4.50
2023-04-28T09:21:57.270Z,3.85
2023-04-28T09:24:42.962Z,9.00
2023-04-28T09:27:12.270Z,4.30
2023-04-28T09:29:39.658Z,3.92
2023-04-28T09:32:17.933Z,4.22
2023-04-28T09:34:49.379Z,4.05
2023-04-28T09:37:17.073Z,3.88
2023-04-28T09:39:51.903Z,3.97
2023-04-28T09:42:41.254Z,4.38
2023-04-28T09:45:11.339Z,4.53
2023-04-28T09:47:41.136Z,3.85
2023-04-28T09:50:12.638Z,3.10
2023-04-28T09:52:49.306Z,3.20
2023-04-28T09:55:17.852Z,3.22
2023-04-28T09:57:47.298Z,3.60
2023-04-28T10:00:17.231Z,3.25
2023-04-28T10:02:44.994Z,3.30
2023-04-28T10:05:13.366Z,3.30
2023-04-28T10:07:40.663Z,3.45
2023-04-28T10:10:08.825Z,3.35
2023-04-28T10:12:38.722Z,2.90
2023-04-28T10:15:08.463Z,2.55
2023-04-28T10:17:36.865Z,3.10
2023-04-28T10:20:05.419Z,3.55
2023-04-28T10:22:44.316Z,3.40
2023-04-28T10:25:12.090Z,3.90
2023-04-28T10:27:41.709Z,3.70
2023-04-28T10:30:28.379Z,4.05
2023-04-28T10:33:15.038Z,4.60
2023-04-28T10:35:44.761Z,3.65
2023-04-28T10:38:15.503Z,3.92
2023-04-28T10:40:46.157Z,5.10
2023-04-28T10:43:27.281Z,3.50
2023-04-28T10:45:57.469Z,3.95
2023-04-28T10:48:34.354Z,4.07
2023-04-28T10:51:12.772Z,3.17
2023-04-28T10:53:45.712Z,3.13
2023-04-28T10:56:13.750Z,3.28
2023-04-28T10:58:46.378Z,2.75
2023-04-28T11:01:24.256Z,2.70
2023-04-28T11:04:00.340Z,3.22
2023-04-28T11:06:32.365Z,3.85
2023-04-28T11:09:02.046Z,3.55
2023-04-28T11:11:35.236Z,3.42
2023-04-28T11:14:18.187Z,3.42
2023-04-28T11:17:03.094Z,3.22
2023-04-28T11:19:31.626Z,3.95
2023-04-28T11:24:31.508Z,3.30
2023-04-28T11:26:59.492Z,3.00
2023-04-28T11:29:37.999Z,3.30
2023-04-28T11:32:10.934Z,3.03
2023-04-28T11:34:38.408Z,3.03
2023-04-28T11:37:09.290Z,2.77
2023-04-28T11:39:36.336Z,2.65
2023-04-28T11:42:10.563Z,2.97
2023-04-28T11:44:38.173Z,2.92
2023-04-28T11:47:07.320Z,3.22
2023-04-28T11:49:46.988Z,3.35
2023-04-28T11:52:14.334Z,3.42
2023-04-28T11:54:43.998Z,2.80
2023-04-28T11:57:18.665Z,3.15
2023-04-28T11:59:46.455Z,3.20
2023-04-28T12:02:13.977Z,3.00
2023-04-28T12:04:42.930Z,3.00
2023-04-28T12:07:18.512Z,3.35
2023-04-28T12:10:05.027Z,3.20
2023-04-28T12:15:05.725Z,3.17
2023-04-28T12:17:38.004Z,3.58
2023-04-28T12:20:07.304Z,2.83
2023-04-28T12:22:48.644Z,5.97
2023-04-28T12:25:17.793Z,3.50
2023-04-28T12:28:00.794Z,2.92
2023-04-28T12:30:28.778Z,3.65
2023-04-28T12:32:56.988Z,3.63
2023-04-28T12:35:25.712Z,3.90
2023-04-28T12:40:20.733Z,3.40
2023-04-28T12:42:48.081Z,3.45
2023-04-28T12:45:16.651Z,3.70
2023-04-28T12:47:44.169Z,3.63
2023-04-28T12:50:11.069Z,4.50
2023-04-28T12:52:38.205Z,3.80
2023-04-28T12:55:05.543Z,4.20
2023-04-28T12:57:32.858Z,3.35
2023-04-28T12:59:59.928Z,3.75
2023-04-28T13:02:27.236Z,3.28
2023-04-28T13:04:54.317Z,3.78
2023-04-28T13:07:22.061Z,3.70
2023-04-28T13:09:48.941Z,3.58
2023-04-28T13:12:16.136Z,4.03
2023-04-28T13:14:43.039Z,4.53
2023-04-28T13:17:10.862Z,5.18
2023-04-28T13:19:38.948Z,4.72
2023-04-28T13:22:06.855Z,4.97
2023-04-28T13:24:33.774Z,3.70
2023-04-28T13:27:01.029Z,5.30
2023-04-28T13:29:27.947Z,3.72
2023-04-28T13:31:55.197Z,9.35
2023-04-28T13:34:22.124Z,5.63
2023-04-28T13:36:51.066Z,5.25
2023-04-28T13:39:20.334Z,4.63
2023-04-28T13:41:50.443Z,4.57
2023-04-28T13:44:17.952Z,6.22
2023-04-28T13:46:46.086Z,4.53
2023-04-28T13:49:13.484Z,3.10
2023-04-28T13:51:41.073Z,4.03
2023-04-28T13:54:09.001Z,6.97
2023-04-28T13:56:36.700Z,3.58
2023-04-28T13:59:03.880Z,7.22
2023-04-28T14:01:31.304Z,4.28
2023-04-28T14:03:58.623Z,4.28
2023-04-28T14:06:27.452Z,4.30
2023-04-28T14:08:54.455Z,3.50
2023-04-28T14:11:22.655Z,3.67
2023-04-28T14:13:49.591Z,3.53
2023-04-28T14:16:16.926Z,3.60
2023-04-28T14:18:43.860Z,4.82
2023-04-28T14:21:11.106Z,5.03
2023-04-28T14:23:38.585Z,4.10
2023-04-28T14:26:06.946Z,3.72
2023-04-28T14:28:33.901Z,4.65
2023-04-28T14:31:06.262Z,5.95
2023-04-28T14:33:33.256Z,5.05
2023-04-28T14:36:02.197Z,4.40
2023-04-28T14:38:30.794Z,4.03
2023-04-28T14:40:58.349Z,3.85
2023-04-28T14:43:25.737Z,3.85
2023-04-28T14:45:53.543Z,4.40
2023-04-28T14:48:20.860Z,4.78
2023-04-28T14:50:48.068Z,4.82
2023-04-28T14:53:14.944Z,4.40
2023-04-28T14:55:42.348Z,5.25
2023-04-28T14:58:09.158Z,4.43
2023-04-28T15:00:36.554Z,6.25
2023-04-28T15:03:04.168Z,4.25
2023-04-28T15:05:31.532Z,4.32
2023-04-28T15:07:58.835Z,4.30
2023-04-28T15:10:32.763Z,4.22
2023-04-28T15:12:59.632Z,4.55
2023-04-28T15:15:27.583Z,4.28
2023-04-28T15:18:00.551Z,4.15
2023-04-28T15:20:30.604Z,5.53
2023-04-28T15:22:57.869Z,4.15
2023-04-28T15:25:26.210Z,3.80
2023-04-28T15:27:53.087Z,5.20
2023-04-28T15:30:20.330Z,4.03
2023-04-28T15:32:49.222Z,4.05
2023-04-28T15:35:16.718Z,4.28
2023-04-28T15:37:45.331Z,4.78
2023-04-28T15:40:14.740Z,4.45
2023-04-28T15:42:43.016Z,4.43
2023-04-28T15:45:11.228Z,5.07
2023-04-28T15:47:39.133Z,4.57
2023-04-28T15:50:09.062Z,5.00
2023-04-28T15:57:32.143Z,4.15
2023-04-28T15:59:59.352Z,4.50
2023-04-28T16:02:26.380Z,4.15
2023-04-28T16:04:53.867Z,5.07
2023-04-28T16:07:20.915Z,4.35
2023-04-28T16:09:48.044Z,4.60
2023-04-28T16:12:15.003Z,5.00
2023-04-28T16:14:42.453Z,5.28
2023-04-28T16:17:09.325Z,5.70
2023-04-28T16:19:36.804Z,5.32
2023-04-28T16:22:03.746Z,5.80
2023-04-28T16:24:31.734Z,5.20
2023-04-28T16:26:58.565Z,5.38
2023-04-28T16:29:26.566Z,5.03
2023-04-28T16:31:53.609Z,4.80
2023-04-28T16:34:20.731Z,6.47
2023-04-28T16:36:47.685Z,5.70
2023-04-28T16:39:15.938Z,7.28
2023-04-28T16:41:42.844Z,5.97
2023-04-28T16:44:10.176Z,6.32
2023-04-28T16:46:37.337Z,6.32
2023-04-28T16:49:04.704Z,6.07
2023-04-28T16:51:35.022Z,5.43
2023-04-28T16:54:02.346Z,5.50
2023-04-28T16:56:29.915Z,4.68
2023-04-28T16:58:56.997Z,6.25
2023-04-28T17:01:23.957Z,7.13
2023-04-28T17:03:51.478Z,8.40
2023-04-28T17:06:18.458Z,8.23
2023-04-28T17:08:45.588Z,7.88
2023-04-28T17:11:16.616Z,8.30
2023-04-28T17:13:43.739Z,8.73
2023-04-28T17:16:11.606Z,13.48
2023-04-28T17:18:38.792Z,14.05
2023-04-28T17:21:05.975Z,11.13
2023-04-28T17:23:33.101Z,12.80
2023-04-28T17:25:59.989Z,9.00
2023-04-28T17:28:28.129Z,6.72
2023-04-28T17:30:55.928Z,5.45
2023-04-28T17:33:23.124Z,7.53
2023-04-28T17:35:50.170Z,10.30
2023-04-28T17:38:17.384Z,15.23
2023-04-28T17:40:48.700Z,21.50
2023-04-28T17:43:16.403Z,23.33
2023-04-28T17:45:43.859Z,15.27
2023-04-28T17:48:12.552Z,20.98
2023-04-28T17:50:39.445Z,18.17
2023-04-28T17:53:06.839Z,21.08
2023-04-28T17:55:33.733Z,32.35
2023-04-28T17:58:00.907Z,65.60
2023-04-28T18:00:27.749Z,62.80
2023-04-28T18:02:55.740Z,32.33
2023-04-28T18:05:24.440Z,35.80
2023-04-28T18:07:52.205Z,44.90
2023-04-28T18:10:19.114Z,37.08
2023-04-28T18:12:46.476Z,49.95
2023-04-28T18:15:13.616Z,51.03
2023-04-28T18:17:40.905Z,53.22
2023-04-28T18:20:08.611Z,43.13
2023-04-28T18:22:35.885Z,46.53
2023-04-28T18:25:02.866Z,47.73
2023-04-28T18:27:30.057Z,38.13
2023-04-28T18:29:56.930Z,38.83
2023-04-28T18:32:24.072Z,44.00
2023-04-28T18:34:51.112Z,45.93
2023-04-28T18:37:18.551Z,44.60
2023-04-28T18:39:45.434Z,41.40
2023-04-28T18:42:13.284Z,43.63
2023-04-28T18:44:41.397Z,55.50
2023-04-28T18:47:08.915Z,48.97
2023-04-28T18:49:38.162Z,70.03
2023-04-28T18:52:05.358Z,67.37
2023-04-28T18:54:32.988Z,68.50
2023-04-28T18:57:00.193Z,115.03
2023-04-28T18:59:27.110Z,97.10
2023-04-28T19:01:54.298Z,101.13
2023-04-28T19:04:22.456Z,112.67
2023-04-28T19:06:49.854Z,126.32
2023-04-28T19:09:17.170Z,62.50
2023-04-28T19:11:44.268Z,63.70
2023-04-28T19:14:11.177Z,53.30
2023-04-28T19:16:38.394Z,54.47
2023-04-28T19:19:06.565Z,58.23
2023-04-28T19:21:41.367Z,55.10
2023-04-28T19:24:08.288Z,49.87
2023-04-28T19:26:35.523Z,46.03
2023-04-28T19:29:02.432Z,43.10
2023-04-28T19:31:29.637Z,38.93
2023-04-28T19:33:57.868Z,35.37
2023-04-28T19:36:25.311Z,32.20
2023-04-28T19:38:52.181Z,97.53
2023-04-28T19:41:20.905Z,43.30
2023-04-28T19:43:47.733Z,27.80
2023-04-28T19:46:16.399Z,34.13
2023-04-28T19:48:46.023Z,31.17
2023-04-28T19:51:14.517Z,32.70
2023-04-28T19:53:41.394Z,31.38
2023-04-28T19:56:10.197Z,38.23
2023-04-28T19:58:37.749Z,31.85
2023-04-28T20:01:08.446Z,30.63
2023-04-28T20:03:36.145Z,25.73
2023-04-28T20:06:03.991Z,24.83
2023-04-28T20:08:30.915Z,18.30
2023-04-28T20:10:58.233Z,25.43
2023-04-28T20:13:26.085Z,24.83
2023-04-28T20:15:55.155Z,24.47
2023-04-28T20:18:22.101Z,31.87
2023-04-28T20:20:52.656Z,35.33
2023-04-28T20:23:19.638Z,23.77
2023-04-28T20:25:47.144Z,31.53
2023-04-28T20:28:14.419Z,33.77
2023-04-28T20:30:44.643Z,35.10
2023-04-28T20:33:11.468Z,27.03
2023-04-28T20:35:38.625Z,26.10
2023-04-28T20:38:05.470Z,28.03
2023-04-28T20:40:33.539Z,27.60
2023-04-28T20:43:02.245Z,26.43
2023-04-28T20:45:32.473Z,27.15
2023-04-28T20:47:59.356Z,28.63
2023-04-28T20:50:28.344Z,29.10
2023-04-28T20:52:55.165Z,29.63
2023-04-28T20:55:23.029Z,29.07
2023-04-28T20:57:49.982Z,28.83
2023-04-28T21:00:17.712Z,32.03
2023-04-28T21:02:45.433Z,35.87
2023-04-28T21:05:12.934Z,36.87
2023-04-28T21:07:39.776Z,37.80
2023-04-28T21:10:07.570Z,38.10
2023-04-28T21:12:34.430Z,37.57
2023-04-28T21:15:01.713Z,38.43
2023-04-28T21:17:28.570Z,45.70
2023-04-28T21:19:57.420Z,40.87
2023-04-28T21:22:25.042Z,40.38
2023-04-28T21:24:54.594Z,38.60
2023-04-28T21:27:21.842Z,37.43
2023-04-28T21:29:49.191Z,39.30
2023-04-28T21:32:16.326Z,37.63
2023-04-28T21:34:47.556Z,37.63
2023-04-28T21:37:14.589Z,36.70
2023-04-28T21:39:41.702Z,35.13
2023-04-28T21:42:08.818Z,32.23
2023-04-28T21:44:35.956Z,31.97
2023-04-28T21:47:02.828Z,29.73
2023-04-28T21:49:29.970Z,27.83
2023-04-28T21:51:56.789Z,28.13
2023-04-28T21:54:24.384Z,26.77
2023-04-28T21:56:52.702Z,26.42
2023-04-28T21:59:20.118Z,24.73
2023-04-28T22:01:47.028Z,27.43
2023-04-28T22:04:15.290Z,41.20
2023-04-28T22:06:42.364Z,36.57
2023-04-28T22:09:09.468Z,36.00
2023-04-28T22:11:36.367Z,29.87
2023-04-28T22:14:03.625Z,30.33
2023-04-28T22:16:30.556Z,29.93
2023-04-28T22:18:57.874Z,31.87
2023-04-28T22:21:25.564Z,58.90
2023-04-28T22:23:52.727Z,44.03
2023-04-28T22:26:20.818Z,32.60
2023-04-28T22:28:48.739Z,28.80
2023-04-28T22:31:15.637Z,30.50
2023-04-28T22:33:43.494Z,31.77
2023-04-28T22:36:10.513Z,32.97
2023-04-28T22:38:37.829Z,30.63
2023-04-28T22:41:05.415Z,30.10
2023-04-28T22:43:32.548Z,33.50
2023-04-28T22:45:59.411Z,31.37
2023-04-28T22:48:26.655Z,31.17
2023-04-28T22:50:53.539Z,27.67
2023-04-28T22:53:20.798Z,23.27
2023-04-28T22:55:47.697Z,27.87
2023-04-28T22:58:14.788Z,28.60
2023-04-28T23:00:41.641Z,28.93
2023-04-28T23:03:08.995Z,25.00
2023-04-28T23:05:38.988Z,28.93
2023-04-28T23:08:06.129Z,28.03
2023-04-28T23:10:33.012Z,29.93
2023-04-28T23:13:00.157Z,25.83
2023-04-28T23:15:27.046Z,23.20
2023-04-28T23:17:54.281Z,20.80
2023-04-28T23:20:21.177Z,25.27
2023-04-28T23:22:48.477Z,23.30
2023-04-28T23:25:15.369Z,23.07
2023-04-28T23:27:42.555Z,24.23
2023-04-28T23:30:10.087Z,23.60
2023-04-28T23:32:37.501Z,24.57
2023-04-28T23:35:04.668Z,24.27
2023-04-28T23:37:32.199Z,25.70
2023-04-28T23:39:59.125Z,28.97
2023-04-28T23:42:27.026Z,27.40
2023-04-28T23:44:53.952Z,29.30
2023-04-28T23:47:21.266Z,23.87
2023-04-28T23:49:48.338Z,23.97
2023-04-28T23:52:15.679Z,23.30
2023-04-28T23:54:42.540Z,21.37
2023-04-28T23:57:09.610Z,20.20
2023-04-28T23:59:36.935Z,22.43
